createdAt,value
2023-03-11T00:01:31.985Z,94.51
2023-03-11T00:04:00.120Z,95.45
2023-03-11T00:06:26.607Z,95.56
2023-03-11T00:08:53.052Z,95.51
2023-03-11T00:11:19.752Z,95.22
2023-03-11T00:13:46.144Z,94.75
2023-03-11T00:16:12.528Z,94.51
2023-03-11T00:18:38.946Z,94.63
2023-03-11T00:21:05.445Z,94.72
2023-03-11T00:23:32.623Z,94.39
2023-03-11T00:26:01.089Z,94.14
2023-03-11T00:28:27.592Z,94.77
2023-03-11T00:30:54.402Z,94.75
2023-03-11T00:33:20.810Z,94.54
2023-03-11T00:35:47.208Z,94.55
2023-03-11T00:38:16.478Z,94.40
2023-03-11T00:40:44.125Z,94.50
2023-03-11T00:43:10.579Z,94.23
2023-03-11T00:45:36.979Z,94.81
2023-03-11T00:48:03.967Z,94.37
2023-03-11T00:50:33.671Z,94.02
2023-03-11T00:53:00.509Z,94.35
2023-03-11T00:55:31.954Z,94.19
2023-03-11T00:58:02.302Z,94.30
2023-03-11T01:00:29.652Z,94.48
2023-03-11T01:02:56.651Z,93.59
2023-03-11T01:05:28.395Z,93.41
2023-03-11T01:07:54.875Z,94.14
2023-03-11T01:10:21.293Z,93.55
2023-03-11T01:12:48.010Z,94.08
2023-03-11T01:15:27.797Z,93.16
2023-03-11T01:17:54.230Z,93.87
2023-03-11T01:20:20.816Z,92.81
2023-03-11T01:22:47.832Z,93.02
2023-03-11T01:25:17.064Z,93.44
2023-03-11T01:27:44.255Z,93.51
2023-03-11T01:30:15.178Z,93.30
2023-03-11T01:32:41.747Z,92.88
2023-03-11T01:35:10.075Z,93.09
2023-03-11T01:37:36.403Z,93.14
2023-03-11T01:40:03.140Z,92.74
2023-03-11T01:42:29.542Z,92.03
2023-03-11T01:44:55.927Z,92.02
2023-03-11T01:47:51.788Z,92.45
2023-03-11T01:50:18.358Z,92.09
2023-03-11T01:52:45.055Z,91.72
2023-03-11T01:55:13.394Z,92.37
2023-03-11T01:57:42.592Z,92.49
2023-03-11T02:00:11.639Z,92.04
2023-03-11T02:02:59.773Z,92.25
2023-03-11T02:05:26.370Z,92.46
2023-03-11T02:07:54.759Z,92.13
2023-03-11T02:10:22.074Z,92.04
2023-03-11T02:12:50.647Z,92.33
2023-03-11T02:15:17.535Z,91.77
2023-03-11T02:17:44.185Z,92.00
2023-03-11T02:20:29.953Z,91.87
2023-03-11T02:22:57.278Z,92.05
2023-03-11T02:25:49.936Z,91.88
2023-03-11T02:28:18.969Z,91.69
2023-03-11T02:30:46.435Z,91.64
2023-03-11T02:33:14.496Z,91.17
2023-03-11T02:35:41.253Z,91.03
2023-03-11T02:38:07.616Z,91.88
2023-03-11T02:40:40.535Z,91.11
2023-03-11T02:43:14.421Z,92.04
2023-03-11T02:45:43.491Z,91.63
2023-03-11T02:48:11.685Z,91.42
2023-03-11T02:50:39.518Z,91.07
2023-03-11T02:53:06.665Z,91.25
2023-03-11T02:55:33.489Z,91.96
2023-03-11T02:57:59.934Z,92.43
2023-03-11T03:00:26.361Z,91.63
2023-03-11T03:02:53.385Z,91.84
2023-03-11T03:05:21.040Z,92.28
2023-03-11T03:07:48.566Z,92.37
2023-03-11T03:10:15.953Z,92.72
2023-03-11T03:12:42.754Z,92.74
2023-03-11T03:15:11.014Z,92.04
2023-03-11T03:17:38.465Z,92.71
2023-03-11T03:20:09.056Z,92.55
2023-03-11T03:22:35.464Z,92.90
2023-03-11T03:25:01.781Z,92.70
2023-03-11T03:27:28.129Z,91.98
2023-03-11T03:29:54.517Z,92.45
2023-03-11T03:32:20.911Z,91.81
2023-03-11T03:34:47.369Z,92.34
2023-03-11T03:37:13.774Z,92.20
2023-03-11T03:39:40.152Z,92.09
2023-03-11T03:42:06.919Z,92.79
2023-03-11T03:44:33.769Z,92.02
2023-03-11T03:47:00.175Z,92.39
2023-03-11T03:49:26.955Z,91.97
2023-03-11T03:51:53.311Z,92.29
2023-03-11T03:54:19.703Z,92.09
2023-03-11T03:56:46.065Z,92.29
2023-03-11T03:59:13.051Z,91.87
2023-03-11T04:01:39.405Z,92.00
2023-03-11T04:04:05.751Z,92.15
2023-03-11T04:06:32.179Z,92.33
2023-03-11T04:08:58.529Z,91.69
2023-03-11T04:11:24.967Z,92.06
2023-03-11T04:13:51.511Z,91.50
2023-03-11T04:16:20.701Z,91.74
2023-03-11T04:18:48.039Z,91.32
2023-03-11T04:21:17.507Z,91.44
2023-03-11T04:23:43.928Z,91.60
2023-03-11T04:26:10.434Z,91.51
2023-03-11T04:28:36.913Z,90.96
2023-03-11T04:31:03.593Z,91.79
2023-03-11T04:33:30.136Z,91.43
2023-03-11T04:35:56.587Z,91.58
2023-03-11T04:38:23.049Z,91.86
2023-03-11T04:40:49.459Z,91.51
2023-03-11T04:43:16.686Z,91.60
2023-03-11T04:45:43.036Z,92.77
2023-03-11T04:48:09.433Z,92.21
2023-03-11T04:50:35.874Z,92.81
2023-03-11T04:53:02.241Z,93.14
2023-03-11T04:55:28.626Z,92.43
2023-03-11T04:57:56.092Z,93.60
2023-03-11T05:00:24.849Z,93.70
2023-03-11T05:02:51.445Z,93.68
2023-03-11T05:05:19.372Z,93.26
2023-03-11T05:07:45.790Z,93.28
2023-03-11T05:10:12.954Z,93.52
2023-03-11T05:12:39.397Z,94.16
2023-03-11T05:15:06.434Z,94.43
2023-03-11T05:17:32.960Z,94.38
2023-03-11T05:19:59.310Z,95.02
2023-03-11T05:22:25.784Z,94.77
2023-03-11T05:24:52.116Z,95.04
2023-03-11T05:27:18.558Z,95.47
2023-03-11T05:29:45.257Z,95.16
2023-03-11T05:32:12.856Z,94.68
2023-03-11T05:34:39.401Z,95.12
2023-03-11T05:37:05.934Z,95.39
2023-03-11T05:39:32.274Z,95.33
2023-03-11T05:41:58.634Z,95.41
2023-03-11T05:44:25.042Z,95.41
2023-03-11T05:46:51.405Z,95.14
2023-03-11T05:49:17.800Z,94.75
2023-03-11T05:51:44.159Z,95.22
2023-03-11T05:54:14.964Z,95.51
2023-03-11T05:56:42.585Z,95.35
2023-03-11T05:59:09.571Z,94.86
2023-03-11T06:01:36.373Z,95.32
2023-03-11T06:04:03.334Z,94.68
2023-03-11T06:06:30.279Z,94.57
2023-03-11T06:08:56.725Z,94.86
2023-03-11T06:11:25.553Z,95.54
2023-03-11T06:13:57.176Z,94.82
2023-03-11T06:16:25.018Z,95.09
2023-03-11T06:18:52.229Z,95.21
2023-03-11T06:21:21.064Z,95.52
2023-03-11T06:23:47.760Z,95.76
2023-03-11T06:26:16.876Z,95.57
2023-03-11T06:28:44.931Z,94.87
2023-03-11T06:31:17.672Z,95.13
2023-03-11T06:33:46.437Z,95.35
2023-03-11T06:36:15.251Z,95.02
2023-03-11T06:38:43.052Z,94.62
2023-03-11T06:41:10.296Z,94.93
2023-03-11T06:43:37.009Z,95.01
2023-03-11T06:46:10.116Z,94.84
2023-03-11T06:48:36.654Z,94.07
2023-03-11T06:51:03.166Z,94.34
2023-03-11T06:53:29.980Z,94.08
2023-03-11T06:56:04.561Z,92.86
2023-03-11T06:58:32.226Z,92.86
2023-03-11T07:01:04.769Z,92.91
2023-03-11T07:03:31.736Z,92.38
2023-03-11T07:05:58.746Z,90.95
2023-03-11T07:08:25.746Z,91.18
2023-03-11T07:11:01.391Z,90.61
2023-03-11T07:13:28.802Z,90.75
2023-03-11T07:16:18.506Z,91.35
2023-03-11T07:18:46.784Z,91.23
2023-03-11T07:21:16.548Z,91.08
2023-03-11T07:23:43.023Z,91.75
2023-03-11T07:26:10.914Z,91.30
2023-03-11T07:28:38.061Z,91.14
2023-03-11T07:31:10.000Z,90.63
2023-03-11T07:33:39.361Z,90.53
2023-03-11T07:36:17.052Z,89.17
2023-03-11T07:38:44.880Z,86.29
2023-03-11T07:41:12.277Z,85.58
2023-03-11T07:43:40.420Z,83.19
2023-03-11T07:46:08.510Z,83.94
2023-03-11T07:48:36.953Z,80.05
2023-03-11T07:51:27.599Z,81.64
2023-03-11T07:53:56.196Z,81.87
2023-03-11T07:56:24.547Z,80.15
2023-03-11T07:58:51.558Z,77.59
2023-03-11T08:01:23.154Z,73.46
2023-03-11T08:03:52.922Z,69.46
2023-03-11T08:06:21.710Z,69.53
2023-03-11T08:08:49.661Z,66.87
2023-03-11T08:11:16.515Z,66.45
2023-03-11T08:13:47.779Z,65.80
2023-03-11T08:16:17.005Z,66.14
2023-03-11T08:18:44.573Z,63.52
2023-03-11T08:21:19.257Z,69.36
2023-03-11T08:23:48.647Z,68.36
2023-03-11T08:26:17.576Z,61.53
2023-03-11T08:28:46.887Z,57.94
2023-03-11T08:31:16.030Z,57.78
2023-03-11T08:33:43.928Z,54.85
2023-03-11T08:36:11.045Z,53.34
2023-03-11T08:38:37.714Z,51.56
2023-03-11T08:41:05.105Z,52.23
2023-03-11T08:43:31.526Z,51.72
2023-03-11T08:46:00.787Z,53.65
2023-03-11T08:48:27.780Z,52.84
2023-03-11T08:50:54.872Z,52.58
2023-03-11T08:53:22.471Z,54.08
2023-03-11T08:55:49.912Z,51.60
2023-03-11T08:58:16.389Z,51.30
2023-03-11T09:00:42.868Z,51.40
2023-03-11T09:03:10.157Z,49.62
2023-03-11T09:05:36.929Z,47.61
2023-03-11T09:08:05.553Z,47.48
2023-03-11T09:10:32.334Z,46.03
2023-03-11T09:12:58.726Z,44.50
2023-03-11T09:15:25.325Z,44.12
2023-03-11T09:17:51.733Z,45.16
2023-03-11T09:20:18.394Z,47.81
2023-03-11T09:22:44.947Z,46.74
2023-03-11T09:25:13.222Z,47.56
2023-03-11T09:27:41.209Z,48.09
2023-03-11T09:30:08.960Z,48.54
2023-03-11T09:32:35.430Z,50.11
2023-03-11T09:35:01.890Z,48.42
2023-03-11T09:37:30.184Z,48.02
2023-03-11T09:39:56.573Z,48.50
2023-03-11T09:42:37.480Z,49.49
2023-03-11T09:45:13.782Z,54.39
2023-03-11T09:47:46.370Z,47.48
2023-03-11T09:50:32.681Z,43.75
2023-03-11T09:52:59.019Z,45.85
2023-03-11T09:56:01.709Z,47.82
2023-03-11T09:58:52.526Z,44.68
2023-03-11T10:01:35.149Z,38.97
2023-03-11T10:04:20.203Z,38.91
2023-03-11T10:06:48.029Z,36.23
2023-03-11T10:09:33.874Z,38.09
2023-03-11T10:12:29.702Z,39.22
2023-03-11T10:15:14.064Z,41.58
2023-03-11T10:18:14.966Z,42.54
2023-03-11T10:20:53.521Z,43.37
2023-03-11T10:23:28.786Z,41.12
2023-03-11T10:26:20.209Z,41.79
2023-03-11T10:29:00.121Z,40.33
2023-03-11T10:31:36.198Z,41.07
2023-03-11T10:34:28.160Z,40.83
2023-03-11T10:37:04.029Z,35.72
2023-03-11T10:39:33.138Z,38.42
2023-03-11T10:42:05.108Z,37.45
2023-03-11T10:44:37.829Z,37.08
2023-03-11T10:47:05.524Z,35.75
2023-03-11T10:49:32.367Z,35.29
2023-03-11T10:51:58.811Z,35.53
2023-03-11T10:54:32.634Z,34.93
2023-03-11T10:57:02.201Z,37.60
2023-03-11T10:59:47.524Z,37.01
2023-03-11T11:02:27.979Z,35.71
2023-03-11T11:05:06.256Z,37.13
2023-03-11T11:07:36.300Z,38.95
2023-03-11T11:10:11.890Z,41.01
2023-03-11T11:12:59.079Z,40.71
2023-03-11T11:15:30.431Z,36.43
2023-03-11T11:18:02.196Z,35.91
2023-03-11T11:20:30.268Z,36.92
2023-03-11T11:23:02.154Z,34.91
2023-03-11T11:25:28.531Z,32.86
2023-03-11T11:27:57.752Z,32.55
2023-03-11T11:30:25.078Z,31.53
2023-03-11T11:32:53.815Z,30.13
2023-03-11T11:35:22.832Z,30.99
2023-03-11T11:37:55.520Z,30.84
2023-03-11T11:40:26.381Z,32.84
2023-03-11T11:43:01.249Z,31.91
2023-03-11T11:45:37.746Z,31.27
2023-03-11T11:48:21.305Z,33.16
2023-03-11T11:51:00.562Z,32.33
2023-03-11T11:53:41.041Z,34.45
2023-03-11T11:56:07.537Z,32.47
2023-03-11T11:58:34.743Z,29.95
2023-03-11T12:01:30.567Z,31.28
2023-03-11T12:04:25.880Z,32.40
2023-03-11T12:07:09.442Z,31.03
2023-03-11T12:10:09.744Z,32.44
2023-03-11T12:12:55.330Z,30.21
2023-03-11T12:15:30.486Z,32.33
2023-03-11T12:18:03.114Z,29.43
2023-03-11T12:20:32.734Z,30.55
2023-03-11T12:23:17.030Z,30.54
2023-03-11T12:25:49.075Z,32.33
2023-03-11T12:28:26.000Z,30.27
2023-03-11T12:30:58.815Z,31.49
2023-03-11T12:33:33.327Z,27.00
2023-03-11T12:36:00.609Z,26.05
2023-03-11T12:38:32.958Z,29.07
2023-03-11T12:41:31.213Z,30.17
2023-03-11T12:44:05.645Z,29.20
2023-03-11T12:46:53.845Z,29.07
2023-03-11T12:49:46.895Z,29.28
2023-03-11T12:52:13.256Z,26.77
2023-03-11T12:54:41.864Z,28.13
2023-03-11T12:57:17.283Z,28.37
2023-03-11T13:00:17.449Z,31.80
2023-03-11T13:03:01.548Z,33.49
2023-03-11T13:05:46.423Z,35.51
2023-03-11T13:08:19.534Z,30.89
2023-03-11T13:10:48.292Z,29.18
2023-03-11T13:13:32.416Z,30.43
2023-03-11T13:16:18.820Z,28.98
2023-03-11T13:18:47.640Z,27.09
2023-03-11T13:21:32.261Z,28.22
2023-03-11T13:24:26.018Z,28.10
2023-03-11T13:26:58.469Z,28.39
2023-03-11T13:29:51.946Z,26.82
2023-03-11T13:33:07.142Z,26.51
2023-03-11T13:35:52.218Z,28.02
2023-03-11T13:38:45.812Z,28.04
2023-03-11T13:41:22.290Z,26.91
2023-03-11T13:43:51.198Z,27.11
2023-03-11T13:46:40.953Z,25.34
2023-03-11T13:49:22.919Z,26.51
2023-03-11T13:51:50.177Z,27.52
2023-03-11T13:54:23.198Z,27.09
2023-03-11T13:56:58.082Z,26.29
2023-03-11T13:59:27.324Z,26.47
2023-03-11T14:01:58.510Z,24.81
2023-03-11T14:04:37.357Z,26.49
2023-03-11T14:07:27.606Z,25.03
2023-03-11T14:10:11.976Z,26.29
2023-03-11T14:12:38.966Z,24.85
2023-03-11T14:15:08.027Z,25.29
2023-03-11T14:17:34.721Z,24.92
2023-03-11T14:20:17.176Z,27.96
2023-03-11T14:22:53.083Z,27.03
2023-03-11T14:25:26.180Z,29.24
2023-03-11T14:27:56.738Z,29.88
2023-03-11T14:30:32.015Z,28.24
2023-03-11T14:33:06.279Z,27.57
2023-03-11T14:35:33.784Z,28.10
2023-03-11T14:38:01.064Z,29.03
2023-03-11T14:40:33.776Z,29.16
2023-03-11T14:43:03.588Z,28.21
2023-03-11T14:45:33.251Z,30.44
2023-03-11T14:48:03.031Z,31.47
2023-03-11T14:50:32.648Z,28.95
2023-03-11T14:53:14.230Z,27.38
2023-03-11T14:55:58.958Z,28.00
2023-03-11T14:58:34.463Z,25.91
2023-03-11T15:01:17.236Z,24.08
2023-03-11T15:03:55.174Z,24.60
2023-03-11T15:06:27.823Z,23.31
2023-03-11T15:09:03.529Z,25.55
2023-03-11T15:11:30.038Z,25.71
2023-03-11T15:14:17.698Z,24.10
2023-03-11T15:16:44.123Z,23.84
2023-03-11T15:19:25.750Z,27.01
2023-03-11T15:21:56.428Z,24.20
2023-03-11T15:24:27.718Z,22.27
2023-03-11T15:27:06.877Z,23.55
2023-03-11T15:29:34.800Z,24.19
2023-03-11T15:32:30.081Z,25.26
2023-03-11T15:35:21.214Z,26.77
2023-03-11T15:37:48.817Z,27.26
2023-03-11T15:40:42.445Z,26.14
2023-03-11T15:43:21.076Z,25.23
2023-03-11T15:45:48.963Z,26.59
2023-03-11T15:48:15.520Z,25.35
2023-03-11T15:50:54.709Z,26.82
2023-03-11T15:53:23.546Z,25.32
2023-03-11T15:55:50.572Z,25.42
2023-03-11T15:58:19.514Z,25.15
2023-03-11T16:00:55.919Z,25.07
2023-03-11T16:03:22.515Z,24.71
2023-03-11T16:05:49.043Z,23.61
2023-03-11T16:08:15.957Z,23.87
2023-03-11T16:10:42.914Z,22.63
2023-03-11T16:13:13.985Z,22.68
2023-03-11T16:15:42.276Z,22.74
2023-03-11T16:18:09.475Z,23.75
2023-03-11T16:20:43.975Z,27.16
2023-03-11T16:23:36.172Z,27.27
2023-03-11T16:26:10.525Z,29.75
2023-03-11T16:28:36.942Z,29.86
2023-03-11T16:31:04.020Z,32.40
2023-03-11T16:33:30.591Z,31.24
2023-03-11T16:35:57.032Z,30.79
2023-03-11T16:38:23.561Z,30.40
2023-03-11T16:40:58.638Z,30.09
2023-03-11T16:43:25.932Z,33.67
2023-03-11T16:45:54.618Z,34.50
2023-03-11T16:48:24.596Z,32.60
2023-03-11T16:50:51.147Z,33.29
2023-03-11T16:53:17.805Z,34.06
2023-03-11T16:55:45.836Z,34.90
2023-03-11T16:58:13.816Z,33.68
2023-03-11T17:00:41.869Z,34.96
2023-03-11T17:03:13.253Z,38.60
2023-03-11T17:05:40.352Z,38.87
2023-03-11T17:08:06.867Z,39.07
2023-03-11T17:10:39.361Z,40.09
2023-03-11T17:13:07.279Z,41.27
2023-03-11T17:15:38.421Z,40.92
2023-03-11T17:18:06.101Z,42.04
2023-03-11T17:20:33.369Z,43.70
2023-03-11T17:23:00.562Z,43.01
2023-03-11T17:25:27.039Z,43.44
2023-03-11T17:27:53.548Z,44.11
2023-03-11T17:30:35.652Z,46.14
2023-03-11T17:33:03.198Z,45.79
2023-03-11T17:35:29.667Z,45.10
2023-03-11T17:37:56.129Z,46.33
2023-03-11T17:40:22.538Z,47.88
2023-03-11T17:42:48.941Z,48.64
2023-03-11T17:45:15.455Z,48.60
2023-03-11T17:47:41.846Z,49.01
2023-03-11T17:50:08.855Z,48.93
2023-03-11T17:52:35.326Z,48.40
2023-03-11T17:55:01.797Z,48.94
2023-03-11T17:57:28.355Z,48.41
2023-03-11T17:59:54.810Z,48.38
2023-03-11T18:02:21.421Z,49.45
2023-03-11T18:04:53.554Z,52.71
2023-03-11T18:07:22.989Z,54.53
2023-03-11T18:09:53.426Z,55.94
2023-03-11T18:12:20.540Z,56.12
2023-03-11T18:14:46.915Z,56.82
2023-03-11T18:17:13.304Z,56.97
2023-03-11T18:19:39.745Z,57.96
2023-03-11T18:22:06.242Z,57.67
2023-03-11T18:24:32.658Z,57.83
2023-03-11T18:26:58.992Z,57.55
2023-03-11T18:29:25.386Z,58.37
2023-03-11T18:31:51.836Z,58.13
2023-03-11T18:34:18.266Z,58.66
2023-03-11T18:36:44.813Z,57.93
2023-03-11T18:39:12.552Z,59.91
2023-03-11T18:41:39.908Z,57.39
2023-03-11T18:44:07.099Z,57.56
2023-03-11T18:46:33.572Z,56.93
2023-03-11T18:49:02.363Z,58.47
2023-03-11T18:51:30.965Z,59.91
2023-03-11T18:53:57.788Z,57.65
2023-03-11T18:56:24.140Z,58.22
2023-03-11T18:58:50.556Z,56.32
2023-03-11T19:01:19.431Z,57.48
2023-03-11T19:03:56.139Z,59.97
2023-03-11T19:06:24.721Z,60.44
2023-03-11T19:08:51.274Z,57.97
2023-03-11T19:11:20.570Z,60.24
2023-03-11T19:13:48.215Z,59.56
2023-03-11T19:16:17.502Z,59.35
2023-03-11T19:18:44.610Z,60.14
2023-03-11T19:21:13.589Z,59.74
2023-03-11T19:23:40.029Z,60.96
2023-03-11T19:26:07.024Z,61.16
2023-03-11T19:28:33.760Z,61.26
2023-03-11T19:31:00.371Z,62.79
2023-03-11T19:33:27.215Z,61.28
2023-03-11T19:35:59.228Z,61.97
2023-03-11T19:38:26.539Z,61.77
2023-03-11T19:41:06.619Z,62.77
2023-03-11T19:43:35.413Z,63.52
2023-03-11T19:46:03.039Z,62.38
2023-03-11T19:48:29.606Z,62.83
2023-03-11T19:50:56.094Z,64.50
2023-03-11T19:53:23.022Z,64.93
2023-03-11T19:55:55.637Z,66.27
2023-03-11T19:58:23.760Z,66.49
2023-03-11T20:00:50.521Z,64.92
2023-03-11T20:03:17.217Z,65.90
2023-03-11T20:05:46.328Z,64.76
2023-03-11T20:08:16.009Z,65.58
2023-03-11T20:10:45.060Z,65.43
2023-03-11T20:13:12.124Z,66.26
2023-03-11T20:15:38.915Z,66.84
2023-03-11T20:18:06.117Z,67.05
2023-03-11T20:20:34.103Z,67.17
2023-03-11T20:23:01.995Z,68.41
2023-03-11T20:25:32.218Z,68.58
2023-03-11T20:28:00.249Z,69.44
2023-03-11T20:30:27.408Z,69.16
2023-03-11T20:32:54.294Z,69.16
2023-03-11T20:35:21.742Z,70.56
2023-03-11T20:37:48.298Z,70.44
2023-03-11T20:40:16.741Z,69.92
2023-03-11T20:42:46.784Z,70.60
2023-03-11T20:45:16.046Z,70.43
2023-03-11T20:47:44.158Z,71.26
2023-03-11T20:50:12.192Z,71.37
2023-03-11T20:52:38.597Z,71.83
2023-03-11T20:55:07.473Z,72.89
2023-03-11T20:57:34.152Z,72.73
2023-03-11T21:00:00.662Z,72.66
2023-03-11T21:02:30.450Z,72.20
2023-03-11T21:04:56.935Z,71.44
2023-03-11T21:07:23.330Z,71.69
2023-03-11T21:09:54.365Z,71.89
2023-03-11T21:12:21.651Z,72.92
2023-03-11T21:14:48.029Z,72.96
2023-03-11T21:17:14.567Z,72.96
2023-03-11T21:19:41.377Z,71.89
2023-03-11T21:22:07.734Z,71.92
2023-03-11T21:24:34.268Z,71.61
2023-03-11T21:27:01.053Z,72.18
2023-03-11T21:29:27.809Z,72.36
2023-03-11T21:31:54.372Z,72.21
2023-03-11T21:34:20.815Z,72.97
2023-03-11T21:36:47.320Z,74.05
2023-03-11T21:39:15.139Z,73.84
2023-03-11T21:41:41.685Z,73.45
2023-03-11T21:44:08.133Z,73.71
2023-03-11T21:46:34.927Z,74.25
2023-03-11T21:49:01.820Z,73.64
2023-03-11T21:51:29.222Z,74.15
2023-03-11T21:53:56.443Z,74.45
2023-03-11T21:56:23.130Z,74.82
2023-03-11T21:58:49.836Z,74.96
2023-03-11T22:01:16.477Z,74.49
2023-03-11T22:03:43.787Z,73.52
2023-03-11T22:06:12.303Z,73.67
2023-03-11T22:08:39.028Z,74.58
2023-03-11T22:11:10.740Z,74.31
2023-03-11T22:13:37.203Z,74.64
2023-03-11T22:16:06.312Z,75.17
2023-03-11T22:18:32.968Z,74.61
2023-03-11T22:20:59.849Z,75.61
2023-03-11T22:23:26.443Z,74.99
2023-03-11T22:25:52.886Z,75.21
2023-03-11T22:28:19.298Z,75.64
2023-03-11T22:30:45.633Z,75.43
2023-03-11T22:33:12.070Z,75.53
2023-03-11T22:35:38.531Z,75.73
2023-03-11T22:38:05.148Z,74.97
2023-03-11T22:40:31.606Z,75.79
2023-03-11T22:42:57.975Z,74.93
2023-03-11T22:45:24.494Z,73.78
2023-03-11T22:47:50.916Z,74.83
2023-03-11T22:50:18.247Z,74.29
2023-03-11T22:52:45.095Z,75.43
2023-03-11T22:55:11.615Z,75.99
2023-03-11T22:57:38.898Z,76.24
2023-03-11T23:00:17.352Z,75.92
2023-03-11T23:02:45.429Z,76.73
2023-03-11T23:05:13.549Z,76.89
2023-03-11T23:07:40.985Z,76.76
2023-03-11T23:10:09.307Z,77.03
2023-03-11T23:12:36.636Z,76.70
2023-03-11T23:15:04.986Z,76.57
2023-03-11T23:17:31.600Z,76.11
2023-03-11T23:19:58.021Z,75.42
2023-03-11T23:22:24.746Z,75.17
2023-03-11T23:24:51.115Z,74.93
2023-03-11T23:27:17.520Z,75.34
2023-03-11T23:29:44.211Z,75.14
2023-03-11T23:32:11.439Z,75.21
2023-03-11T23:34:38.225Z,75.59
2023-03-11T23:37:05.554Z,75.61
2023-03-11T23:39:32.067Z,77.05
2023-03-11T23:41:58.604Z,76.48
2023-03-11T23:44:25.048Z,76.32
2023-03-11T23:46:51.435Z,76.50
2023-03-11T23:49:17.769Z,76.26
2023-03-11T23:51:44.148Z,76.68
2023-03-11T23:54:10.511Z,76.18
2023-03-11T23:56:36.967Z,75.98
2023-03-11T23:59:03.978Z,77.01
